WARR/SUB METAR and TAF weather

Enter ICAO airport designator
Station Type Date Time Source
WARR METAR 2022/10/01 07:00 UTC NOAA

WARR 010700Z 36020KT 9999 -TS FEW018CB BKN017 30/26 Q1007 NOSIG


Station Type Date Time Source
WARR Decoded METAR 2022/10/01 07:00 UTC NOAA

Station name not available
Oct 01, 2022 - 03:00 AM EDT / 2022.10.01 0700 UTC
Wind: from the N (360 degrees) at 23 MPH (20 KT):0
Visibility: greater than 7 mile(s):0
Sky conditions: mostly cloudy
Weather: light with thunder; Cumulonimbus clouds observed
Temperature: 86 F (30 C)
Heat index: 99.3 F (37.4 C):1
Dew Point: 78 F (26 C)
Relative Humidity: 79%
Pressure (altimeter): 29.74 in. Hg (1007 hPa)
ob: WARR 010700Z 36020KT 9999 -TS FEW018CB BKN017 30/26 Q1007 NOSIG
cycle: 7

Station Type Date Time Source
WARR TAF 2022/10/01 06:09 UTC NOAA

TAF WARR 010500Z 0106/0206 08010KT 9999 FEW020
TEMPO 0107/0111 4000 TSRA SCT020CB
BECMG 0116/0118 25005KT 5000 HZ
BECMG 0200/0202 08010KT 9999 NSW

Example: see airport list